Time;durP1;ratioP1;P1;durP2;ratioP2;P2;SDS_P1;SDS_P2;PMS_P1;PMS_P2;Temp;Humidity;BMP_temperature;BMP_pressure;BME280_temperature;BME280_humidity;BME280_pressure;Samples;Min_cycle;Max_cycle;Signal;HPM_P1;HPM_P2
2023/10/13 00:01:23;;;;;;;21.15;3.92;;;8.10;100.00;;;;;;4952099;28;20078;-70
2023/10/13 00:03:54;;;;;;;16.70;4.05;;;8.20;100.00;;;;;;4954339;28;20134;-70
2023/10/13 00:06:21;;;;;;;16.75;3.42;;;8.20;100.00;;;;;;4970783;28;20055;-70
2023/10/13 00:08:48;;;;;;;8.88;2.75;;;8.30;100.00;;;;;;4973312;28;20612;-70
2023/10/13 00:11:15;;;;;;;21.42;4.60;;;8.40;100.00;;;;;;4972127;28;21151;-70
2023/10/13 00:13:49;;;;;;;14.82;3.67;;;8.40;100.00;;;;;;4953058;28;20062;-70
2023/10/13 00:16:22;;;;;;;13.27;3.50;;;8.50;100.00;;;;;;4980760;28;20074;-70
2023/10/13 00:18:54;;;;;;;9.57;2.80;;;8.60;100.00;;;;;;4975571;28;20047;-70
2023/10/13 00:21:43;;;;;;;13.23;3.47;;;8.60;100.00;;;;;;4962017;28;20050;-70
2023/10/13 00:24:12;;;;;;;15.25;3.70;;;8.70;100.00;;;;;;4962677;28;20079;-70
2023/10/13 00:26:42;;;;;;;17.92;3.20;;;8.70;100.00;;;;;;4957957;28;20488;-70
2023/10/13 00:29:16;;;;;;;23.83;3.40;;;8.80;100.00;;;;;;4971327;28;20046;-70
2023/10/13 00:31:47;;;;;;;12.88;3.35;;;8.80;100.00;;;;;;4978006;28;20053;-70
2023/10/13 00:39:36;;;;;;;9.50;2.95;;;9.00;100.00;;;;;;4952112;28;20051;-70
2023/10/13 00:42:07;;;;;;;13.55;3.03;;;9.10;100.00;;;;;;4960906;28;20055;-70
2023/10/13 00:44:48;;;;;;;26.35;3.25;;;9.10;100.00;;;;;;4964124;28;20055;-70
2023/10/13 00:47:39;;;;;;;8.85;2.72;;;9.20;100.00;;;;;;4957040;28;20118;-70
2023/10/13 00:50:11;;;;;;;19.02;3.70;;;9.30;100.00;;;;;;4964680;28;20065;-70
2023/10/13 00:52:41;;;;;;;15.52;2.60;;;9.30;100.00;;;;;;4963455;28;20719;-70
2023/10/13 00:55:09;;;;;;;14.35;2.55;;;9.40;100.00;;;;;;4955542;28;20134;-70
2023/10/13 00:57:37;;;;;;;12.50;2.70;;;9.40;100.00;;;;;;4960059;28;20047;-70
2023/10/13 01:00:18;;;;;;;11.07;2.88;;;9.50;100.00;;;;;;4961862;28;20124;-70
2023/10/13 01:02:56;;;;;;;15.95;2.90;;;9.60;100.00;;;;;;4962173;28;20054;-70
2023/10/13 01:05:23;;;;;;;16.65;3.10;;;9.60;100.00;;;;;;4954253;28;20086;-70
2023/10/13 01:07:54;;;;;;;15.25;2.78;;;9.70;100.00;;;;;;4962649;28;20134;-70
2023/10/13 01:10:27;;;;;;;11.88;2.72;;;9.70;100.00;;;;;;4961687;28;20623;-70
2023/10/13 01:12:55;;;;;;;15.75;3.10;;;9.70;100.00;;;;;;4955181;28;20129;-70
2023/10/13 01:15:22;;;;;;;22.00;3.35;;;9.80;100.00;;;;;;4953625;28;20055;-70
2023/10/13 01:17:49;;;;;;;12.98;2.92;;;9.80;100.00;;;;;;4969050;28;20047;-70
2023/10/13 01:20:26;;;;;;;14.90;2.88;;;9.90;100.00;;;;;;4961876;28;20451;-70
2023/10/13 01:22:56;;;;;;;12.48;2.67;;;9.90;100.00;;;;;;4960584;28;20585;-70
2023/10/13 01:25:27;;;;;;;14.65;2.72;;;10.00;100.00;;;;;;4960263;28;20059;-70
2023/10/13 01:27:55;;;;;;;12.80;2.92;;;10.00;100.00;;;;;;4962328;28;20047;-70
2023/10/13 01:30:26;;;;;;;13.70;3.08;;;10.00;100.00;;;;;;4961218;28;20226;-70
2023/10/13 01:32:54;;;;;;;19.30;2.70;;;10.10;100.00;;;;;;4956830;28;20083;-70
2023/10/13 01:35:36;;;;;;;9.00;2.67;;;10.10;100.00;;;;;;4978304;28;20142;-70
2023/10/13 01:38:03;;;;;;;16.52;3.17;;;10.20;100.00;;;;;;4960953;28;20107;-70
2023/10/13 01:40:33;;;;;;;13.45;2.75;;;10.20;100.00;;;;;;4963058;28;20156;-71
2023/10/13 01:43:01;;;;;;;22.17;3.03;;;10.20;100.00;;;;;;4960084;28;20491;-70
2023/10/13 01:45:31;;;;;;;17.27;3.25;;;10.20;100.00;;;;;;4952781;28;20051;-70
2023/10/13 01:47:58;;;;;;;15.38;3.25;;;10.20;100.00;;;;;;4953047;28;20411;-70
2023/10/13 01:50:31;;;;;;;13.18;2.50;;;10.30;100.00;;;;;;4958512;28;20082;-70
2023/10/13 01:53:14;;;;;;;12.95;2.70;;;10.30;100.00;;;;;;4958921;28;20047;-70
2023/10/13 01:55:45;;;;;;;14.45;2.63;;;10.30;100.00;;;;;;4968817;28;20083;-70
2023/10/13 01:58:15;;;;;;;9.98;2.90;;;10.30;100.00;;;;;;4952544;28;20054;-70
2023/10/13 02:00:43;;;;;;;13.93;3.10;;;10.30;100.00;;;;;;4961001;28;20160;-70
2023/10/13 02:03:15;;;;;;;15.68;2.72;;;10.20;100.00;;;;;;4974628;28;20057;-70
2023/10/13 02:05:47;;;;;;;8.75;2.45;;;10.30;100.00;;;;;;4976739;28;20185;-70
2023/10/13 02:08:25;;;;;;;9.07;2.45;;;10.30;100.00;;;;;;4961080;28;20125;-70
2023/10/13 02:10:54;;;;;;;11.20;2.75;;;10.30;100.00;;;;;;4953115;28;20047;-70
2023/10/13 02:13:24;;;;;;;15.07;2.83;;;10.30;100.00;;;;;;4972067;28;20134;-70
2023/10/13 02:15:56;;;;;;;14.13;2.28;;;10.30;100.00;;;;;;4972248;28;20079;-70
2023/10/13 02:18:27;;;;;;;12.93;2.97;;;10.40;100.00;;;;;;4960648;28;20162;-70
2023/10/13 02:20:55;;;;;;;22.65;3.10;;;10.40;100.00;;;;;;4962755;28;20047;-70
2023/10/13 02:23:24;;;;;;;15.55;2.70;;;10.40;100.00;;;;;;4959718;28;20078;-70
2023/10/13 02:26:00;;;;;;;12.65;3.20;;;10.40;100.00;;;;;;4961145;28;20425;-70
2023/10/13 02:28:33;;;;;;;13.98;3.50;;;10.40;100.00;;;;;;4962987;28;20628;-70
2023/10/13 02:31:04;;;;;;;19.95;3.05;;;10.50;100.00;;;;;;4957850;28;20396;-70
2023/10/13 02:33:31;;;;;;;19.27;3.45;;;10.50;100.00;;;;;;4976563;28;20689;-70
2023/10/13 02:36:03;;;;;;;21.75;3.65;;;10.50;100.00;;;;;;4954559;28;20055;-70
2023/10/13 02:38:42;;;;;;;13.85;3.25;;;10.50;100.00;;;;;;4961182;28;20093;-70
2023/10/13 02:41:25;;;;;;;8.90;3.17;;;10.50;100.00;;;;;;4955675;28;20049;-70
2023/10/13 02:43:54;;;;;;;18.98;3.63;;;10.60;100.00;;;;;;4956254;28;20050;-70
2023/10/13 02:46:28;;;;;;;14.57;3.22;;;10.60;100.00;;;;;;4968192;28;20627;-70
2023/10/13 02:48:57;;;;;;;20.40;3.15;;;10.60;100.00;;;;;;4961146;28;20064;-70
2023/10/13 02:51:36;;;;;;;20.35;3.20;;;10.60;100.00;;;;;;4972328;28;20051;-70
2023/10/13 02:54:18;;;;;;;23.65;3.67;;;10.60;100.00;;;;;;4961304;28;20571;-71
2023/10/13 02:56:57;;;;;;;22.30;3.28;;;10.70;100.00;;;;;;4962252;28;20057;-71
2023/10/13 02:59:34;;;;;;;20.42;4.20;;;10.70;100.00;;;;;;4962386;28;20043;-70
2023/10/13 03:02:17;;;;;;;13.02;3.70;;;10.70;100.00;;;;;;4954355;28;20059;-71
2023/10/13 03:04:48;;;;;;;21.05;3.05;;;10.70;100.00;;;;;;4961879;28;20146;-70
2023/10/13 03:07:15;;;;;;;17.70;3.90;;;10.70;100.00;;;;;;4973903;28;20055;-70
2023/10/13 03:09:50;;;;;;;14.32;3.47;;;10.70;100.00;;;;;;4970347;28;20431;-70
2023/10/13 03:12:18;;;;;;;16.35;3.65;;;10.70;100.00;;;;;;4961267;28;20133;-70
2023/10/13 03:14:48;;;;;;;12.07;3.55;;;10.80;100.00;;;;;;4960871;28;20105;-71
2023/10/13 03:17:22;;;;;;;21.63;4.22;;;10.80;100.00;;;;;;4954517;28;20513;-70
2023/10/13 03:19:54;;;;;;;13.43;3.67;;;10.80;100.00;;;;;;4957757;28;20066;-70
2023/10/13 03:22:30;;;;;;;13.07;4.00;;;10.80;100.00;;;;;;4966972;28;20578;-70
2023/10/13 03:25:05;;;;;;;11.50;4.15;;;10.90;100.00;;;;;;4959475;28;20547;-71
2023/10/13 03:28:00;;;;;;;21.33;4.55;;;10.90;100.00;;;;;;4956199;28;20674;-70
2023/10/13 03:31:02;;;;;;;18.75;4.53;;;11.00;100.00;;;;;;4957454;28;20054;-70
2023/10/13 03:33:29;;;;;;;23.73;4.80;;;11.00;100.00;;;;;;4955096;28;20563;-70
2023/10/13 03:36:04;;;;;;;21.33;4.60;;;11.00;100.00;;;;;;4960996;28;20182;-70
2023/10/13 03:38:36;;;;;;;17.65;3.88;;;11.10;100.00;;;;;;4956726;28;21123;-70
2023/10/13 03:41:20;;;;;;;21.10;4.95;;;11.10;100.00;;;;;;4956461;28;20071;-70
2023/10/13 03:43:52;;;;;;;22.08;5.50;;;11.10;100.00;;;;;;4959947;28;20138;-70
2023/10/13 03:46:21;;;;;;;15.70;4.63;;;11.10;100.00;;;;;;4969763;28;20159;-70
2023/10/13 03:48:52;;;;;;;28.95;5.78;;;11.20;100.00;;;;;;4950549;28;20136;-70
2023/10/13 03:51:19;;;;;;;22.70;5.78;;;11.20;100.00;;;;;;4959134;28;20109;-70
2023/10/13 03:53:53;;;;;;;26.83;6.10;;;11.20;100.00;;;;;;4959382;28;20042;-70
2023/10/13 03:56:26;;;;;;;25.27;5.75;;;11.30;100.00;;;;;;4960825;28;20051;-70
2023/10/13 04:01:58;;;;;;;24.75;6.32;;;11.30;100.00;;;;;;4969073;28;20055;-71
2023/10/13 04:17:40;;;;;;;24.75;7.72;;;11.50;100.00;;;;;;4956499;28;20054;-70
2023/10/13 04:44:48;;;;;;;20.27;8.07;;;11.80;100.00;;;;;;4963762;28;20125;-70
2023/10/13 04:47:21;;;;;;;23.98;7.07;;;11.80;100.00;;;;;;4960181;28;20491;-70
2023/10/13 04:57:49;;;;;;;36.47;8.02;;;12.00;100.00;;;;;;4954252;28;20054;-70
2023/10/13 05:03:51;;;;;;;22.65;7.40;;;12.00;100.00;;;;;;4959886;28;20090;-70
2023/10/13 05:44:33;;;;;;;24.30;8.23;;;12.10;100.00;;;;;;4959333;28;20640;-71
2023/10/13 05:44:53;;;;;;;20.38;7.20;;;12.40;100.00;;;;;;4954213;28;20527;-71
2023/10/13 05:47:46;;;;;;;19.02;7.55;;;12.40;100.00;;;;;;4962750;28;20050;-70
2023/10/13 06:28:40;;;;;;;11.23;5.75;;;12.90;100.00;;;;;;4959552;28;20154;-69
2023/10/13 06:31:22;;;;;;;16.80;5.80;;;13.00;100.00;;;;;;4960830;28;20249;-70
2023/10/13 06:33:50;;;;;;;15.48;5.82;;;13.00;100.00;;;;;;4957207;28;20050;-70
2023/10/13 06:36:17;;;;;;;17.70;6.95;;;13.10;100.00;;;;;;4957507;28;20050;-69
2023/10/13 06:38:52;;;;;;;11.40;5.40;;;13.20;100.00;;;;;;4957829;28;20062;-70
2023/10/13 06:41:30;;;;;;;13.55;5.68;;;13.20;100.00;;;;;;4958543;28;20049;-75
2023/10/13 06:44:00;;;;;;;11.98;5.57;;;13.20;100.00;;;;;;4975178;28;20655;-74
2023/10/13 06:46:28;;;;;;;11.20;5.13;;;13.30;100.00;;;;;;4973441;28;20555;-75
2023/10/13 06:48:59;;;;;;;13.43;6.30;;;13.40;100.00;;;;;;4968153;28;20098;-75
2023/10/13 06:51:31;;;;;;;19.73;5.35;;;13.40;100.00;;;;;;4971765;28;20065;-74
2023/10/13 06:53:58;;;;;;;20.33;7.32;;;13.40;100.00;;;;;;4984110;28;20042;-75
2023/10/13 06:56:29;;;;;;;19.05;7.43;;;13.50;100.00;;;;;;4964297;28;20047;-75
2023/10/13 06:58:59;;;;;;;27.10;10.05;;;13.50;100.00;;;;;;4969901;28;20046;-75
2023/10/13 07:01:27;;;;;;;23.50;9.10;;;13.60;100.00;;;;;;4962806;28;20042;-75
2023/10/13 07:04:00;;;;;;;29.90;11.43;;;13.60;100.00;;;;;;4976661;28;20051;-75
2023/10/13 07:06:27;;;;;;;38.28;12.73;;;13.60;100.00;;;;;;4964284;28;20062;-75
2023/10/13 07:08:56;;;;;;;33.90;11.77;;;13.70;100.00;;;;;;4960260;28;20047;-75
2023/10/13 07:11:33;;;;;;;36.42;13.02;;;13.70;100.00;;;;;;4961349;28;20066;-75
2023/10/13 07:14:16;;;;;;;40.30;14.43;;;13.80;100.00;;;;;;4978448;28;20102;-75
2023/10/13 07:16:59;;;;;;;39.95;13.15;;;13.80;100.00;;;;;;4955280;28;20062;-76
2023/10/13 07:19:27;;;;;;;36.17;14.20;;;13.90;100.00;;;;;;4974343;28;20051;-75
2023/10/13 07:21:59;;;;;;;38.75;14.43;;;13.90;100.00;;;;;;4960186;28;20153;-75
2023/10/13 07:24:39;;;;;;;37.45;14.05;;;13.90;100.00;;;;;;4961944;28;20630;-75
2023/10/13 07:27:07;;;;;;;41.45;15.43;;;13.90;100.00;;;;;;4954615;28;20055;-74
2023/10/13 07:29:35;;;;;;;49.13;16.70;;;14.00;100.00;;;;;;4959198;28;20064;-74
2023/10/13 07:32:03;;;;;;;45.58;16.52;;;14.00;100.00;;;;;;4962645;28;20058;-75
2023/10/13 07:34:33;;;;;;;45.35;17.02;;;14.10;100.00;;;;;;4956572;28;20675;-76
2023/10/13 07:37:00;;;;;;;46.03;16.67;;;14.10;100.00;;;;;;4974733;28;20146;-75
2023/10/13 07:39:34;;;;;;;48.90;18.48;;;14.20;100.00;;;;;;4980403;28;20130;-75
2023/10/13 07:42:05;;;;;;;52.33;18.13;;;14.30;100.00;;;;;;4954346;28;20146;-74
2023/10/13 07:44:33;;;;;;;51.75;18.25;;;14.30;100.00;;;;;;4958318;28;20570;-75
2023/10/13 07:47:07;;;;;;;49.60;18.58;;;14.40;100.00;;;;;;4959404;28;21714;-74
2023/10/13 07:49:39;;;;;;;43.78;18.13;;;14.40;100.00;;;;;;4956156;28;20152;-74
2023/10/13 07:54:49;;;;;;;43.60;17.55;;;14.50;100.00;;;;;;4960635;28;20053;-75
2023/10/13 07:57:17;;;;;;;46.78;18.17;;;14.60;100.00;;;;;;4959239;28;20082;-74
2023/10/13 07:59:53;;;;;;;51.17;18.83;;;14.60;100.00;;;;;;4958997;28;20094;-74
2023/10/13 08:05:14;;;;;;;;;;;14.70;100.00;;;;;;4957624;28;20157;-74
2023/10/13 08:07:41;;;;;;;49.75;20.05;;;14.70;100.00;;;;;;4958366;28;20653;-74
2023/10/13 08:10:10;;;;;;;48.28;18.65;;;14.70;100.00;;;;;;4956092;28;20055;-72
2023/10/13 08:12:37;;;;;;;44.08;18.48;;;14.70;100.00;;;;;;4955925;28;20050;-72
2023/10/13 08:15:40;;;;;;;43.83;18.85;;;14.70;100.00;;;;;;4966336;28;20105;-73
2023/10/13 08:18:17;;;;;;;49.67;20.77;;;14.80;100.00;;;;;;4954157;28;20058;-75
2023/10/13 08:20:44;;;;;;;48.00;18.30;;;14.80;100.00;;;;;;4961873;28;20081;-72
2023/10/13 08:23:14;;;;;;;50.47;19.85;;;14.80;100.00;;;;;;4971102;28;20047;-73
2023/10/13 08:31:26;;;;;;;44.75;17.85;;;14.90;100.00;;;;;;4954584;28;20563;-72
2023/10/13 08:34:06;;;;;;;44.60;18.35;;;14.80;100.00;;;;;;4960042;28;20108;-72
2023/10/13 08:36:37;;;;;;;46.25;18.60;;;14.80;100.00;;;;;;4975166;28;20062;-73
2023/10/13 08:39:57;;;;;;;47.42;19.27;;;14.80;100.00;;;;;;4955582;28;20135;-72
2023/10/13 08:42:11;;;;;;;98.45;23.58;;;14.80;100.00;;;;;;4959195;28;20044;-74
2023/10/13 08:44:45;;;;;;;45.95;19.10;;;14.90;100.00;;;;;;4959967;28;20051;-74
2023/10/13 08:47:18;;;;;;;45.15;18.75;;;14.90;100.00;;;;;;4956981;28;20066;-74
2023/10/13 08:49:52;;;;;;;50.47;18.95;;;14.90;100.00;;;;;;4962146;28;20058;-72
2023/10/13 08:55:39;;;;;;;37.53;17.73;;;15.00;100.00;;;;;;4959330;28;20125;-72
2023/10/13 08:58:13;;;;;;;36.30;16.45;;;15.00;100.00;;;;;;4962380;28;20531;-73
2023/10/13 09:01:11;;;;;;;52.65;18.35;;;15.10;100.00;;;;;;4959754;28;20038;-72
2023/10/13 09:03:42;;;;;;;43.70;17.42;;;15.10;100.00;;;;;;4960818;28;20053;-72
2023/10/13 09:06:19;;;;;;;37.67;17.25;;;15.20;100.00;;;;;;4960081;28;20062;-72
2023/10/13 09:09:06;;;;;;;40.42;17.38;;;15.30;100.00;;;;;;4959710;28;20922;-73
2023/10/13 09:14:36;;;;;;;33.72;16.40;;;15.40;100.00;;;;;;4963832;28;20080;-73
2023/10/13 09:17:09;;;;;;;57.95;16.23;;;15.40;100.00;;;;;;4955406;28;20047;-73
2023/10/13 09:19:47;;;;;;;36.95;15.30;;;15.50;100.00;;;;;;4962310;28;20713;-73
2023/10/13 09:22:28;;;;;;;29.67;14.80;;;15.40;100.00;;;;;;4950751;28;20051;-73
2023/10/13 09:24:58;;;;;;;32.33;14.70;;;15.40;100.00;;;;;;4956528;28;20058;-74
2023/10/13 09:27:32;;;;;;;33.38;14.75;;;15.40;100.00;;;;;;4958503;28;20081;-73
2023/10/13 09:30:09;;;;;;;35.05;14.73;;;15.40;100.00;;;;;;4971176;28;20629;-73
2023/10/13 09:32:45;;;;;;;36.30;13.93;;;15.40;100.00;;;;;;4963056;28;20050;-72
2023/10/13 09:35:18;;;;;;;32.22;13.75;;;15.40;100.00;;;;;;4958540;28;20224;-73
2023/10/13 09:37:46;;;;;;;30.40;13.65;;;15.40;100.00;;;;;;4957410;28;20043;-73
2023/10/13 09:43:18;;;;;;;32.05;14.57;;;15.50;100.00;;;;;;4955150;28;20054;-73
2023/10/13 09:46:01;;;;;;;29.63;13.52;;;15.60;100.00;;;;;;4963269;28;20789;-73
2023/10/13 09:48:40;;;;;;;30.67;13.80;;;15.60;100.00;;;;;;4960465;28;20191;-72
2023/10/13 09:51:21;;;;;;;28.50;13.68;;;15.60;100.00;;;;;;4976954;28;20174;-72
2023/10/13 09:54:16;;;;;;;27.48;13.80;;;15.50;100.00;;;;;;4966281;28;20053;-72
2023/10/13 09:57:12;;;;;;;36.22;13.50;;;15.50;100.00;;;;;;4957312;28;20055;-73
2023/10/13 09:59:56;;;;;;;28.33;12.80;;;15.50;100.00;;;;;;4958892;28;20042;-72
2023/10/13 10:02:26;;;;;;;27.60;11.70;;;15.50;100.00;;;;;;4963154;28;20558;-72
2023/10/13 10:05:11;;;;;;;24.23;11.13;;;15.50;100.00;;;;;;4960311;28;20061;-72
2023/10/13 10:07:39;;;;;;;20.27;9.38;;;15.40;100.00;;;;;;4958299;28;20051;-72
2023/10/13 10:10:08;;;;;;;12.05;5.88;;;15.40;100.00;;;;;;4977393;28;20062;-72
2023/10/13 10:12:59;;;;;;;0.00;0.00;;;15.40;100.00;;;;;;4973447;28;20109;-73
2023/10/13 10:15:30;;;;;;;0.00;0.00;;;15.40;100.00;;;;;;4963052;28;20745;-72
2023/10/13 10:17:57;;;;;;;0.00;0.00;;;15.40;100.00;;;;;;4966369;28;20042;-72
2023/10/13 10:20:42;;;;;;;0.00;0.00;;;15.40;100.00;;;;;;4964472;28;20050;-72
2023/10/13 10:23:21;;;;;;;0.00;0.00;;;15.30;100.00;;;;;;4958227;28;20412;-72
2023/10/13 10:25:51;;;;;;;0.00;0.00;;;15.30;100.00;;;;;;4960806;28;20313;-73
2023/10/13 10:28:19;;;;;;;0.00;0.00;;;15.30;100.00;;;;;;4961225;28;20050;-72
2023/10/13 10:30:47;;;;;;;0.00;0.00;;;15.30;100.00;;;;;;4975441;28;20050;-73
2023/10/13 10:33:15;;;;;;;0.00;0.00;;;15.30;100.00;;;;;;4961276;28;20062;-72
2023/10/13 10:35:44;;;;;;;0.00;0.00;;;15.30;100.00;;;;;;4959374;28;20054;-73
2023/10/13 10:38:32;;;;;;;0.00;0.00;;;15.30;100.00;;;;;;4961599;28;20560;-73
2023/10/13 10:41:05;;;;;;;1.35;0.25;;;15.30;100.00;;;;;;4964884;28;20049;-73
2023/10/13 10:43:46;;;;;;;0.00;0.00;;;15.30;100.00;;;;;;4963326;28;20166;-73
2023/10/13 10:46:18;;;;;;;0.00;0.00;;;15.30;100.00;;;;;;4961758;28;20145;-74
2023/10/13 10:48:46;;;;;;;0.10;0.10;;;15.30;100.00;;;;;;4976263;28;20058;-72
2023/10/13 10:53:50;;;;;;;0.00;0.00;;;15.40;100.00;;;;;;4962381;28;20067;-73
2023/10/13 10:56:37;;;;;;;0.00;0.00;;;15.40;100.00;;;;;;4970619;28;20755;-73
2023/10/13 10:59:08;;;;;;;0.00;0.00;;;15.50;100.00;;;;;;4962538;28;20217;-72
2023/10/13 11:01:52;;;;;;;0.00;0.00;;;15.60;100.00;;;;;;4979257;28;20108;-72
2023/10/13 11:06:58;;;;;;;0.28;0.08;;;16.00;100.00;;;;;;4964904;28;20575;-72
2023/10/13 11:09:31;;;;;;;2.92;1.45;;;16.10;100.00;;;;;;4966168;28;20464;-72
2023/10/13 11:12:14;;;;;;;0.00;0.00;;;16.20;100.00;;;;;;4961499;28;20046;-72
2023/10/13 11:14:46;;;;;;;0.00;0.00;;;16.30;100.00;;;;;;4975719;28;20088;-73
2023/10/13 11:20:17;;;;;;;0.00;0.00;;;16.50;100.00;;;;;;4956863;28;20636;-73
2023/10/13 11:22:47;;;;;;;;;;;16.50;100.00;;;;;;4976622;28;20679;-73
2023/10/13 11:25:29;;;;;;;0.00;0.00;;;16.50;100.00;;;;;;4959845;28;19941;-73
2023/10/13 11:28:04;;;;;;;0.00;0.00;;;16.50;100.00;;;;;;4971865;28;20852;-73
2023/10/13 11:33:08;;;;;;;0.00;0.00;;;16.60;100.00;;;;;;4957932;28;20054;-73
2023/10/13 11:46:13;;;;;;;0.00;0.00;;;16.90;100.00;;;;;;4959404;28;20428;-73
2023/10/13 11:48:54;;;;;;;0.00;0.00;;;17.00;100.00;;;;;;4961766;28;20732;-74
2023/10/13 11:51:24;;;;;;;0.38;0.30;;;17.10;100.00;;;;;;4974904;28;20059;-73
2023/10/13 11:53:51;;;;;;;0.10;0.10;;;17.10;100.00;;;;;;4959628;28;20780;-73
2023/10/13 11:56:20;;;;;;;0.00;0.00;;;17.20;100.00;;;;;;4968579;28;20590;-74
2023/10/13 11:58:48;;;;;;;0.00;0.00;;;17.20;100.00;;;;;;4958879;28;20057;-73
2023/10/13 12:04:30;;;;;;;0.00;0.00;;;17.30;100.00;;;;;;4967046;28;20141;-73
2023/10/13 12:12:22;;;;;;;0.00;0.00;;;17.70;100.00;;;;;;4958966;28;20051;-73
2023/10/13 12:14:52;;;;;;;0.00;0.00;;;18.10;100.00;;;;;;4965369;28;20645;-73
2023/10/13 12:17:25;;;;;;;6.75;0.63;;;18.30;100.00;;;;;;4963163;28;20053;-73
2023/10/13 12:19:52;;;;;;;0.00;0.00;;;18.40;100.00;;;;;;4975211;28;20098;-73
2023/10/13 12:22:35;;;;;;;0.00;0.00;;;18.80;100.00;;;;;;4964114;28;20369;-73
2023/10/13 12:25:18;;;;;;;0.00;0.00;;;19.10;100.00;;;;;;4961149;28;20055;-74
2023/10/13 12:27:50;;;;;;;0.00;0.00;;;19.10;100.00;;;;;;4966671;28;20050;-73
2023/10/13 12:30:22;;;;;;;0.17;0.17;;;19.10;100.00;;;;;;4960157;28;20080;-73
2023/10/13 12:33:08;;;;;;;0.00;0.00;;;19.10;100.00;;;;;;4962108;28;20587;-73
2023/10/13 12:52:31;;;;;;;0.08;0.08;;;19.90;100.00;;;;;;4964626;28;20592;-76
2023/10/13 12:55:05;;;;;;;;;;;;;;;;;;;;;
2023/10/13 12:57:27;;;;;;;0.00;0.00;;;20.00;100.00;;;;;;4964201;28;20061;-78
2023/10/13 12:59:55;;;;;;;0.00;0.00;;;20.30;100.00;;;;;;4971022;28;20058;-79
2023/10/13 13:02:24;;;;;;;0.00;0.00;;;20.50;100.00;;;;;;4972767;28;20054;-76
2023/10/13 13:04:56;;;;;;;0.00;0.00;;;20.40;100.00;;;;;;4975497;28;20057;-75
2023/10/13 13:07:29;;;;;;;0.00;0.00;;;20.10;99.80;;;;;;4977589;28;20133;-75
2023/10/13 13:09:59;;;;;;;0.00;0.00;;;19.90;100.00;;;;;;4961330;28;20546;-75
2023/10/13 13:12:30;;;;;;;0.00;0.00;;;19.80;100.00;;;;;;4984075;28;20053;-74
2023/10/13 13:14:57;;;;;;;0.17;0.17;;;19.70;100.00;;;;;;4965739;28;20109;-75
2023/10/13 13:17:24;;;;;;;0.00;0.00;;;19.70;100.00;;;;;;4975336;28;20471;-75
2023/10/13 13:19:51;;;;;;;0.70;0.70;;;19.80;100.00;;;;;;4971296;28;20101;-75
2023/10/13 13:22:18;;;;;;;0.00;0.00;;;19.80;100.00;;;;;;4979796;28;20070;-75
2023/10/13 13:24:45;;;;;;;0.00;0.00;;;19.80;100.00;;;;;;4965787;28;20047;-75
2023/10/13 13:27:13;;;;;;;0.00;0.00;;;19.80;100.00;;;;;;4960563;28;20234;-74
2023/10/13 13:29:46;;;;;;;0.57;0.57;;;19.70;100.00;;;;;;4978625;28;20550;-74
2023/10/13 13:32:23;;;;;;;0.00;0.00;;;19.60;100.00;;;;;;4982211;28;20051;-74
2023/10/13 13:34:57;;;;;;;0.00;0.00;;;19.50;100.00;;;;;;4962806;28;20046;-74
2023/10/13 13:37:27;;;;;;;0.00;0.00;;;19.40;100.00;;;;;;4967746;28;20097;-74
2023/10/13 13:39:54;;;;;;;0.00;0.00;;;19.30;100.00;;;;;;4960763;28;20570;-74
2023/10/13 13:42:21;;;;;;;0.00;0.00;;;19.30;100.00;;;;;;4987731;28;20148;-74
2023/10/13 13:44:48;;;;;;;0.15;0.15;;;19.30;100.00;;;;;;4963170;28;20144;-74
2023/10/13 13:47:16;;;;;;;0.70;0.70;;;19.20;100.00;;;;;;4962380;28;20201;-74
2023/10/13 13:49:51;;;;;;;0.00;0.00;;;19.30;100.00;;;;;;4969560;28;20058;-74
2023/10/13 13:52:21;;;;;;;0.38;0.38;;;19.30;100.00;;;;;;4960307;28;20054;-74
2023/10/13 13:54:48;;;;;;;0.00;0.00;;;19.40;100.00;;;;;;4966567;28;20056;-74
2023/10/13 13:57:17;;;;;;;0.08;0.08;;;19.50;100.00;;;;;;4973687;28;20105;-74
2023/10/13 13:59:45;;;;;;;0.00;0.00;;;19.60;100.00;;;;;;4969563;28;20542;-74
2023/10/13 14:02:30;;;;;;;0.00;0.00;;;19.70;100.00;;;;;;4969535;28;20046;-74
2023/10/13 14:04:57;;;;;;;0.00;0.00;;;19.80;100.00;;;;;;4985449;28;20046;-74
2023/10/13 14:07:24;;;;;;;0.08;0.08;;;20.00;98.60;;;;;;4963029;28;20061;-74
2023/10/13 14:09:51;;;;;;;0.00;0.00;;;20.00;99.80;;;;;;4958557;28;20054;-74
2023/10/13 14:12:41;;;;;;;0.00;0.00;;;20.10;98.60;;;;;;4961689;28;20043;-74
2023/10/13 14:15:19;;;;;;;0.00;0.00;;;20.00;97.90;;;;;;4962569;28;20050;-74
2023/10/13 14:17:49;;;;;;;0.00;0.00;;;20.10;98.80;;;;;;4959606;28;20053;-73
2023/10/13 14:20:19;;;;;;;0.00;0.00;;;20.10;98.20;;;;;;4981037;28;20065;-74
2023/10/13 14:22:52;;;;;;;0.00;0.00;;;20.20;97.90;;;;;;4962561;28;20480;-73
2023/10/13 14:25:24;;;;;;;0.32;0.32;;;20.10;97.10;;;;;;4951557;28;20054;-73
2023/10/13 14:27:51;;;;;;;1.35;0.52;;;20.00;97.50;;;;;;4966918;28;20551;-74
2023/10/13 14:30:21;;;;;;;0.00;0.00;;;19.90;98.60;;;;;;4950938;28;20110;-74
2023/10/13 14:32:48;;;;;;;0.00;0.00;;;19.80;98.10;;;;;;4970008;28;20054;-76
2023/10/13 14:35:15;;;;;;;0.00;0.00;;;19.80;99.30;;;;;;4962049;28;20126;-74
2023/10/13 14:37:42;;;;;;;0.00;0.00;;;19.90;99.40;;;;;;4982000;28;20150;-75
2023/10/13 14:40:12;;;;;;;0.00;0.00;;;19.80;98.60;;;;;;4966063;28;20039;-76
2023/10/13 14:42:42;;;;;;;0.00;0.00;;;19.70;98.80;;;;;;4968711;28;20042;-75
2023/10/13 14:45:12;;;;;;;0.00;0.00;;;19.70;99.80;;;;;;4961855;28;20130;-76
2023/10/13 14:47:40;;;;;;;0.00;0.00;;;19.60;100.00;;;;;;4960735;28;20094;-76
2023/10/13 14:50:19;;;;;;;0.00;0.00;;;19.50;100.00;;;;;;4958500;28;20051;-76
2023/10/13 14:52:48;;;;;;;0.00;0.00;;;19.50;100.00;;;;;;4977233;28;20137;-76
2023/10/13 14:55:33;;;;;;;0.00;0.00;;;19.40;100.00;;;;;;4959758;28;20065;-76
2023/10/13 14:58:04;;;;;;;0.00;0.00;;;19.40;100.00;;;;;;4960894;28;20145;-76
2023/10/13 15:00:31;;;;;;;0.00;0.00;;;19.30;100.00;;;;;;4969906;28;20050;-76
2023/10/13 15:03:02;;;;;;;2.20;0.38;;;19.30;100.00;;;;;;4956897;28;20051;-75
2023/10/13 15:05:29;;;;;;;0.00;0.00;;;19.30;100.00;;;;;;4976351;28;20073;-76
2023/10/13 15:07:57;;;;;;;0.00;0.00;;;19.30;100.00;;;;;;4969575;28;20162;-76
2023/10/13 15:10:25;;;;;;;0.65;0.65;;;19.30;100.00;;;;;;4973552;28;20051;-76
2023/10/13 15:12:52;;;;;;;0.00;0.00;;;19.20;100.00;;;;;;4968050;28;20084;-76
2023/10/13 15:15:19;;;;;;;0.00;0.00;;;19.20;100.00;;;;;;4962861;28;20139;-76
2023/10/13 15:17:48;;;;;;;0.00;0.00;;;19.20;100.00;;;;;;4961309;28;20709;-76
2023/10/13 15:20:17;;;;;;;0.00;0.00;;;19.10;100.00;;;;;;4976213;28;20047;-75
2023/10/13 15:22:47;;;;;;;0.00;0.00;;;19.10;100.00;;;;;;4965303;28;20637;-75
2023/10/13 15:25:21;;;;;;;0.00;0.00;;;19.10;100.00;;;;;;4969308;28;20477;-76
2023/10/13 15:27:57;;;;;;;0.05;0.05;;;19.00;100.00;;;;;;4980146;28;20388;-76
2023/10/13 15:30:30;;;;;;;0.00;0.00;;;19.00;100.00;;;;;;4971920;28;20157;-75
2023/10/13 15:32:57;;;;;;;0.00;0.00;;;18.90;100.00;;;;;;4971187;28;20165;-76
2023/10/13 15:35:28;;;;;;;0.00;0.00;;;18.90;100.00;;;;;;4966066;28;20524;-75
2023/10/13 15:37:56;;;;;;;0.30;0.13;;;18.90;100.00;;;;;;4974158;28;20529;-76
2023/10/13 15:40:23;;;;;;;0.00;0.00;;;18.90;100.00;;;;;;4949605;28;20141;-76
2023/10/13 15:42:50;;;;;;;0.00;0.00;;;18.90;100.00;;;;;;4977205;28;20503;-75
2023/10/13 15:45:18;;;;;;;0.00;0.00;;;18.90;100.00;;;;;;4961178;28;20058;-75
2023/10/13 15:47:46;;;;;;;0.20;0.20;;;18.90;100.00;;;;;;4972507;28;20049;-75
2023/10/13 15:50:39;;;;;;;0.00;0.00;;;18.90;100.00;;;;;;4966563;28;20050;-76
2023/10/13 15:53:12;;;;;;;0.00;0.00;;;18.90;99.10;;;;;;4955424;28;20146;-70
2023/10/13 15:55:40;;;;;;;0.00;0.00;;;18.90;99.00;;;;;;4955555;28;20507;-70
2023/10/13 15:58:07;;;;;;;1.38;1.08;;;18.90;98.60;;;;;;4958083;28;20050;-70
2023/10/13 16:00:35;;;;;;;0.00;0.00;;;18.90;98.10;;;;;;4971482;28;20546;-70
2023/10/13 16:03:10;;;;;;;0.00;0.00;;;18.90;97.90;;;;;;4975709;28;20051;-70
2023/10/13 16:05:40;;;;;;;0.37;0.37;;;18.90;97.10;;;;;;4956517;28;20162;-70
2023/10/13 16:08:10;;;;;;;0.00;0.00;;;18.90;96.50;;;;;;4956117;28;20293;-70
2023/10/13 16:10:41;;;;;;;0.10;0.10;;;19.00;95.30;;;;;;4958127;28;20051;-71
2023/10/13 16:13:15;;;;;;;0.00;0.00;;;19.00;95.80;;;;;;4975290;28;20054;-70
2023/10/13 16:15:46;;;;;;;;;;;19.10;95.10;;;;;;4975123;28;20492;-70
2023/10/13 16:18:13;;;;;;;0.00;0.00;;;19.20;93.80;;;;;;4960198;28;19922;-70
2023/10/13 16:20:40;;;;;;;0.00;0.00;;;19.20;94.40;;;;;;4971247;28;20046;-70